createdAt,value
2023-03-17T00:02:54.586Z,34.3
2023-03-17T00:07:54.872Z,34.3
2023-03-17T00:12:55.157Z,34.2
2023-03-17T00:17:55.708Z,34.2
2023-03-17T00:22:56.018Z,34.2
2023-03-17T00:27:56.296Z,34.1
2023-03-17T00:32:56.610Z,34.1
2023-03-17T00:37:57.758Z,34.1
2023-03-17T00:42:58.050Z,34
2023-03-17T00:47:58.320Z,34
2023-03-17T00:52:58.813Z,33.9
2023-03-17T00:57:59.322Z,33.9
2023-03-17T01:02:59.823Z,33.9
2023-03-17T01:08:00.103Z,33.9
2023-03-17T01:13:00.740Z,33.8
2023-03-17T01:18:01.063Z,33.8
2023-03-17T01:23:01.349Z,33.7
2023-03-17T01:28:01.621Z,33.7
2023-03-17T01:33:01.898Z,33.7
2023-03-17T01:38:02.180Z,33.6
2023-03-17T01:43:02.474Z,33.6
2023-03-17T01:48:02.739Z,33.6
2023-03-17T01:53:02.996Z,33.6
2023-03-17T01:58:03.260Z,33.5
2023-03-17T02:03:03.657Z,33.5
2023-03-17T02:08:03.899Z,33.4
2023-03-17T02:13:04.279Z,33.4
2023-03-17T02:18:04.577Z,33.4
2023-03-17T02:23:04.827Z,33.4
2023-03-17T02:28:05.085Z,33.4
2023-03-17T02:33:05.494Z,33.3
2023-03-17T02:38:05.801Z,33.3
2023-03-17T02:43:06.025Z,33.2
2023-03-17T02:48:06.273Z,33.2
2023-03-17T02:53:06.533Z,33.2
2023-03-17T02:58:06.804Z,33.2
2023-03-17T03:03:07.033Z,33.1
2023-03-17T03:08:07.290Z,33.1
2023-03-17T03:13:07.501Z,33.1
2023-03-17T03:18:08.001Z,33.1
2023-03-17T03:23:08.225Z,33
2023-03-17T03:28:09.518Z,33
2023-03-17T03:33:09.790Z,33
2023-03-17T03:38:10.058Z,32.9
2023-03-17T03:43:22.255Z,32.9
2023-03-17T03:48:23.199Z,32.9
2023-03-17T03:53:23.459Z,32.9
2023-03-17T03:58:23.721Z,32.9
2023-03-17T04:03:23.941Z,32.8
2023-03-17T04:08:25.089Z,32.8
2023-03-17T04:13:25.327Z,32.7
2023-03-17T04:18:25.576Z,32.7
2023-03-17T04:23:25.836Z,32.7
2023-03-17T04:28:27.209Z,32.7
2023-03-17T04:33:27.437Z,32.7
2023-03-17T04:38:27.681Z,32.6
2023-03-17T04:43:27.919Z,32.6
2023-03-17T04:48:28.166Z,32.6
2023-03-17T04:53:28.389Z,32.6
2023-03-17T04:58:30.992Z,32.6
2023-03-17T05:03:31.736Z,32.6
2023-03-17T05:08:31.963Z,32.5
2023-03-17T05:13:32.410Z,32.5
2023-03-17T05:18:32.648Z,32.5
2023-03-17T05:23:32.885Z,32.4
2023-03-17T05:28:33.105Z,32.4
2023-03-17T05:33:33.349Z,32.4
2023-03-17T05:38:33.583Z,32.4
2023-03-17T05:43:33.861Z,32.4
2023-03-17T05:48:34.084Z,32.3
2023-03-17T05:53:34.315Z,32.3
2023-03-17T05:58:34.584Z,32.2
2023-03-17T06:03:34.970Z,32.2
2023-03-17T06:08:35.251Z,32.2
2023-03-17T06:13:35.465Z,32.2
2023-03-17T06:18:35.688Z,32.2
2023-03-17T06:23:36.184Z,32.2
2023-03-17T06:28:36.407Z,32.2
2023-03-17T06:33:36.622Z,32.1
2023-03-17T06:38:36.843Z,32.1
2023-03-17T06:43:37.970Z,32.1
2023-03-17T06:48:38.208Z,32.1
2023-03-17T06:53:38.449Z,32.1
2023-03-17T06:58:38.679Z,32.1
2023-03-17T07:03:39.132Z,32
2023-03-17T07:08:39.357Z,32
2023-03-17T07:13:39.833Z,32
2023-03-17T07:18:40.076Z,31.9
2023-03-17T07:23:40.311Z,31.9
2023-03-17T07:28:40.513Z,31.9
2023-03-17T07:33:41.023Z,31.8
2023-03-17T07:38:42.367Z,31.8
2023-03-17T07:43:42.626Z,31.8
2023-03-17T07:48:42.868Z,31.8
2023-03-17T07:53:43.207Z,31.8
2023-03-17T07:58:43.433Z,31.8
2023-03-17T08:03:43.662Z,31.7
2023-03-17T08:08:45.502Z,31.7
2023-03-17T08:13:47.852Z,31.7
2023-03-17T08:18:49.845Z,31.7
2023-03-17T08:23:51.840Z,31.6
2023-03-17T08:28:53.710Z,31.6
2023-03-17T08:33:54.773Z,31.6
2023-03-17T08:38:56.614Z,31.6
2023-03-17T08:43:58.511Z,31.6
2023-03-17T08:49:00.381Z,31.6
2023-03-17T08:54:02.218Z,31.5
2023-03-17T08:59:04.106Z,31.5
2023-03-17T09:04:05.210Z,31.5
2023-03-17T09:09:07.025Z,31.5
2023-03-17T09:14:08.953Z,31.4
2023-03-17T09:19:09.994Z,31.4
2023-03-17T09:24:11.810Z,31.4
2023-03-17T09:29:13.680Z,31.3
2023-03-17T09:34:13.851Z,31.3
2023-03-17T09:39:14.018Z,31.2
2023-03-17T09:44:15.877Z,31.2
2023-03-17T09:49:17.751Z,31.2
2023-03-17T09:54:19.595Z,31.2
2023-03-17T09:59:21.430Z,31.2
2023-03-17T10:04:23.249Z,31.2
2023-03-17T10:09:26.930Z,31.2
2023-03-17T10:14:28.959Z,31.1
2023-03-17T10:19:30.824Z,31.1
2023-03-17T10:24:31.830Z,31.1
2023-03-17T10:29:33.676Z,31
2023-03-17T10:34:37.889Z,31
2023-03-17T10:39:39.919Z,31
2023-03-17T10:44:40.974Z,31
2023-03-17T10:49:41.393Z,30.9
2023-03-17T10:54:41.592Z,30.9
2023-03-17T10:59:44.195Z,30.9
2023-03-17T11:04:44.801Z,30.9
2023-03-17T11:09:44.994Z,30.9
2023-03-17T11:14:45.189Z,30.9
2023-03-17T11:19:45.421Z,30.9
2023-03-17T11:24:45.731Z,30.9
2023-03-17T11:29:46.012Z,30.7
2023-03-17T11:34:46.263Z,30.6
2023-03-17T11:39:46.485Z,30.5
2023-03-17T11:44:46.737Z,30.5
2023-03-17T11:49:46.950Z,30.5
2023-03-17T11:54:47.148Z,30.4
2023-03-17T11:59:48.992Z,30.4
2023-03-17T12:04:49.191Z,30.4
2023-03-17T12:09:49.420Z,30.4
2023-03-17T12:14:49.632Z,30.4
2023-03-17T12:19:49.803Z,30.4
2023-03-17T12:24:50.016Z,30.4
2023-03-17T12:29:50.354Z,30.4
2023-03-17T12:34:51.418Z,30.4
2023-03-17T12:39:51.635Z,30.4
2023-03-17T12:44:51.887Z,30.3
2023-03-17T12:49:52.467Z,30.3
2023-03-17T12:54:52.705Z,30.3
2023-03-17T12:59:52.919Z,30.3
2023-03-17T13:04:53.154Z,30.3
2023-03-17T13:09:53.380Z,30.3
2023-03-17T13:14:53.588Z,30.3
2023-03-17T13:19:53.810Z,30.3
2023-03-17T13:24:54.009Z,30.3
2023-03-17T13:29:54.415Z,30.3
2023-03-17T13:34:54.631Z,30.2
2023-03-17T13:39:54.831Z,30.2
2023-03-17T13:44:55.040Z,30.2
2023-03-17T13:49:55.891Z,30.2
2023-03-17T13:54:56.095Z,30.2
2023-03-17T13:59:57.972Z,30.1
2023-03-17T14:04:59.862Z,30.1
2023-03-17T14:10:00.978Z,30.1
2023-03-17T14:15:02.485Z,30.1
2023-03-17T14:20:04.489Z,30.1
2023-03-17T14:25:04.737Z,30.1
2023-03-17T14:30:04.952Z,30.1
2023-03-17T14:35:05.386Z,30.1
2023-03-17T14:40:05.621Z,30.1
2023-03-17T14:45:05.843Z,30
2023-03-17T14:50:06.078Z,30
2023-03-17T14:55:06.272Z,30
2023-03-17T15:00:06.491Z,30
2023-03-17T15:05:06.758Z,30
2023-03-17T15:10:07.102Z,29.9
2023-03-17T15:15:07.659Z,29.9
2023-03-17T15:20:09.713Z,29.9
2023-03-17T15:25:11.987Z,29.9
2023-03-17T15:30:12.164Z,29.9
2023-03-17T15:35:12.607Z,29.9
2023-03-17T15:40:17.217Z,29.9
2023-03-17T15:45:17.420Z,29.9
2023-03-17T15:50:18.715Z,29.9
2023-03-17T15:55:18.976Z,29.9
2023-03-17T16:00:20.800Z,29.9
2023-03-17T16:05:22.608Z,29.8
2023-03-17T16:10:23.720Z,29.8
2023-03-17T16:15:24.982Z,29.8
2023-03-17T16:20:25.758Z,29.8
2023-03-17T16:25:26.037Z,29.8
2023-03-17T16:30:26.253Z,29.8
2023-03-17T16:35:26.456Z,29.8
2023-03-17T16:40:26.700Z,29.8
2023-03-17T16:45:26.892Z,29.7
2023-03-17T16:50:30.245Z,29.7
2023-03-17T16:55:30.676Z,29.7
2023-03-17T17:00:33.112Z,29.7
2023-03-17T17:05:35.127Z,29.7
2023-03-17T17:10:36.944Z,31.9
2023-03-17T17:15:37.243Z,34.6
2023-03-17T17:20:37.738Z,37.2
2023-03-17T17:25:38.186Z,39.9
2023-03-17T17:30:38.712Z,40.8
2023-03-17T17:35:39.302Z,41.7
2023-03-17T17:40:40.712Z,42.1
2023-03-17T17:45:41.216Z,42.1
2023-03-17T17:50:41.740Z,42.1
2023-03-17T17:55:43.383Z,43.1
2023-03-17T18:00:43.938Z,42.9
2023-03-17T18:05:44.512Z,43.3
2023-03-17T18:10:45.966Z,43.3
2023-03-17T18:15:46.503Z,43.3
2023-03-17T18:20:47.122Z,43.2
2023-03-17T18:25:47.812Z,43.2
2023-03-17T18:30:48.424Z,43.1
2023-03-17T18:35:49.273Z,43.1
2023-03-17T18:40:49.938Z,43.1
2023-03-17T18:45:50.503Z,43.1
2023-03-17T18:50:51.380Z,43
2023-03-17T18:55:51.922Z,43
2023-03-17T19:00:52.528Z,42.9
2023-03-17T19:05:53.118Z,42.9
2023-03-17T19:10:53.705Z,42.9
2023-03-17T19:15:54.481Z,42.9
2023-03-17T19:20:55.258Z,42.8
2023-03-17T19:25:55.838Z,42.8
2023-03-17T19:30:57.352Z,42.7
2023-03-17T19:35:58.112Z,42.7
2023-03-17T19:40:58.761Z,42.7
2023-03-17T19:45:59.640Z,42.7
2023-03-17T19:51:00.288Z,42.6
2023-03-17T19:56:01.934Z,42.6
2023-03-17T20:01:02.513Z,42.6
2023-03-17T20:11:09.460Z,43.9
2023-03-17T20:16:10.153Z,43.9
2023-03-17T20:21:10.960Z,43.9
2023-03-17T20:26:11.538Z,43.9
2023-03-17T20:31:12.419Z,43.9
2023-03-17T20:36:15.827Z,43.8
2023-03-17T20:41:16.420Z,43.8
2023-03-17T20:46:17.350Z,43.8
2023-03-17T20:51:19.227Z,43.7
2023-03-17T20:56:19.936Z,43.7
2023-03-17T21:01:21.832Z,43.7
2023-03-17T21:06:24.789Z,43.7
2023-03-17T21:11:26.479Z,43.6
2023-03-17T21:16:27.141Z,43.6
2023-03-17T21:21:27.710Z,43.6
2023-03-17T21:26:28.278Z,43.6
2023-03-17T21:31:28.966Z,43.5
2023-03-17T21:36:29.645Z,43.5
2023-03-17T21:41:30.209Z,44.4
2023-03-17T21:46:30.850Z,45.3
2023-03-17T21:51:31.507Z,45.4
2023-03-17T21:56:32.140Z,44.5
2023-03-17T22:01:32.814Z,44.2
2023-03-17T22:06:33.546Z,44.1
2023-03-17T22:11:34.253Z,43.9
2023-03-17T22:16:34.904Z,43.8
2023-03-17T22:21:35.555Z,43.7
2023-03-17T22:26:36.176Z,43.6
2023-03-17T22:31:36.797Z,43.6
2023-03-17T22:36:37.457Z,43.4
2023-03-17T22:41:38.314Z,43.4
2023-03-17T22:46:38.867Z,43.3
2023-03-17T22:51:40.290Z,43.1
2023-03-17T22:56:40.834Z,43.1
2023-03-17T23:01:44.840Z,42.9
2023-03-17T23:06:45.405Z,42.8
2023-03-17T23:11:45.937Z,42.7
2023-03-17T23:16:46.528Z,42.6
2023-03-17T23:21:47.119Z,42.5
2023-03-17T23:26:47.664Z,42.4
2023-03-17T23:31:48.178Z,42.3
2023-03-17T23:36:48.736Z,42.2
2023-03-17T23:41:49.268Z,42.1
2023-03-17T23:46:50.017Z,42
2023-03-17T23:51:50.490Z,41.9
2023-03-17T23:56:51.189Z,41.8
